sensor_id;sensor_type;location;lat;lon;timestamp;pressure;altitude;pressure_sealevel;temperature;humidity
5703;BME280;2876;51.738;10.050;2023-01-20T00:02:24;98626.06;;;-0.16;100.00
5703;BME280;2876;51.738;10.050;2023-01-20T00:08:26;98635.19;;;0.08;100.00
5703;BME280;2876;51.738;10.050;2023-01-20T00:14:28;98634.28;;;0.17;100.00
5703;BME280;2876;51.738;10.050;2023-01-20T00:20:30;98642.19;;;0.35;100.00
5703;BME280;2876;51.738;10.050;2023-01-20T00:26:32;98653.09;;;0.40;100.00
5703;BME280;2876;51.738;10.050;2023-01-20T00:32:40;98661.00;;;0.40;99.49
5703;BME280;2876;51.738;10.050;2023-01-20T00:38:46;98666.38;;;0.48;99.61
5703;BME280;2876;51.738;10.050;2023-01-20T00:44:48;98684.66;;;0.49;100.00
5703;BME280;2876;51.738;10.050;2023-01-20T00:50:50;98682.09;;;0.58;99.71
5703;BME280;2876;51.738;10.050;2023-01-20T00:56:52;98702.75;;;0.62;99.56
5703;BME280;2876;51.738;10.050;2023-01-20T01:02:54;98702.38;;;0.75;99.56
5703;BME280;2876;51.738;10.050;2023-01-20T01:08:56;98705.53;;;0.79;99.82
5703;BME280;2876;51.738;10.050;2023-01-20T01:14:58;98713.00;;;0.83;99.75
5703;BME280;2876;51.738;10.050;2023-01-20T01:21:06;98715.19;;;0.88;99.18
5703;BME280;2876;51.738;10.050;2023-01-20T01:27:09;98712.00;;;0.84;99.25
5703;BME280;2876;51.738;10.050;2023-01-20T01:33:11;98714.56;;;0.76;99.40
5703;BME280;2876;51.738;10.050;2023-01-20T01:39:13;98718.88;;;0.77;99.68
5703;BME280;2876;51.738;10.050;2023-01-20T01:45:17;98734.25;;;0.82;99.50
5703;BME280;2876;51.738;10.050;2023-01-20T01:51:37;98728.38;;;0.88;99.77
5703;BME280;2876;51.738;10.050;2023-01-20T01:57:40;98737.41;;;0.85;99.03
5703;BME280;2876;51.738;10.050;2023-01-20T02:04:04;98738.66;;;0.73;99.60
5703;BME280;2876;51.738;10.050;2023-01-20T02:10:08;98750.53;;;0.77;99.66
5703;BME280;2876;51.738;10.050;2023-01-20T02:16:18;98745.50;;;0.84;100.00
5703;BME280;2876;51.738;10.050;2023-01-20T02:22:54;98749.41;;;0.97;99.45
5703;BME280;2876;51.738;10.050;2023-01-20T02:36:41;98751.28;;;1.05;99.14
5703;BME280;2876;51.738;10.050;2023-01-20T02:43:13;98764.47;;;1.05;98.98
5703;BME280;2876;51.738;10.050;2023-01-20T02:49:29;98776.16;;;1.02;98.56
5703;BME280;2876;51.738;10.050;2023-01-20T02:55:39;98769.31;;;1.10;98.41
5703;BME280;2876;51.738;10.050;2023-01-20T03:01:57;98774.63;;;1.18;98.00
5703;BME280;2876;51.738;10.050;2023-01-20T03:08:06;98774.06;;;1.06;97.53
5703;BME280;2876;51.738;10.050;2023-01-20T03:14:12;98767.97;;;0.88;97.27
5703;BME280;2876;51.738;10.050;2023-01-20T03:20:15;98779.97;;;0.82;98.51
5703;BME280;2876;51.738;10.050;2023-01-20T03:26:20;98792.19;;;0.83;98.46
5703;BME280;2876;51.738;10.050;2023-01-20T03:32:23;98799.63;;;0.88;98.26
5703;BME280;2876;51.738;10.050;2023-01-20T03:38:27;98811.22;;;0.95;98.12
5703;BME280;2876;51.738;10.050;2023-01-20T03:51:41;98820.88;;;1.04;97.15
5703;BME280;2876;51.738;10.050;2023-01-20T03:57:40;98825.78;;;0.99;97.71
5703;BME280;2876;51.738;10.050;2023-01-20T04:03:47;98823.22;;;0.89;97.11
5703;BME280;2876;51.738;10.050;2023-01-20T04:10:02;98829.72;;;0.59;95.96
5703;BME280;2876;51.738;10.050;2023-01-20T04:16:12;98822.59;;;0.14;95.12
5703;BME280;2876;51.738;10.050;2023-01-20T04:22:16;98830.41;;;-0.41;93.96
5703;BME280;2876;51.738;10.050;2023-01-20T04:28:20;98839.03;;;-0.87;93.81
5703;BME280;2876;51.738;10.050;2023-01-20T04:34:22;98844.56;;;-1.29;94.81
5703;BME280;2876;51.738;10.050;2023-01-20T04:40:24;98849.84;;;-1.29;95.31
5703;BME280;2876;51.738;10.050;2023-01-20T04:46:27;98856.97;;;-1.50;95.99
5703;BME280;2876;51.738;10.050;2023-01-20T04:52:28;98873.09;;;-1.74;95.87
5703;BME280;2876;51.738;10.050;2023-01-20T04:58:30;98873.31;;;-1.87;97.01
5703;BME280;2876;51.738;10.050;2023-01-20T05:04:32;98873.47;;;-1.48;98.23
5703;BME280;2876;51.738;10.050;2023-01-20T05:10:34;98871.44;;;-1.35;99.10
5703;BME280;2876;51.738;10.050;2023-01-20T05:16:37;98878.59;;;-1.37;98.79
5703;BME280;2876;51.738;10.050;2023-01-20T05:22:39;98878.88;;;-1.40;98.84
5703;BME280;2876;51.738;10.050;2023-01-20T05:28:43;98895.16;;;-1.56;98.60
5703;BME280;2876;51.738;10.050;2023-01-20T05:34:45;98901.19;;;-1.75;99.48
5703;BME280;2876;51.738;10.050;2023-01-20T05:40:46;98905.78;;;-1.67;99.83
5703;BME280;2876;51.738;10.050;2023-01-20T05:46:48;98925.25;;;-1.39;100.00
5703;BME280;2876;51.738;10.050;2023-01-20T05:52:50;98929.34;;;-1.06;100.00
5703;BME280;2876;51.738;10.050;2023-01-20T05:58:54;98925.06;;;-0.88;100.00
5703;BME280;2876;51.738;10.050;2023-01-20T06:04:57;98924.13;;;-0.77;100.00
5703;BME280;2876;51.738;10.050;2023-01-20T06:11:02;98934.78;;;-0.79;100.00
5703;BME280;2876;51.738;10.050;2023-01-20T06:17:04;98942.81;;;-0.80;100.00
5703;BME280;2876;51.738;10.050;2023-01-20T06:23:06;98947.00;;;-0.68;99.46
5703;BME280;2876;51.738;10.050;2023-01-20T06:29:08;98957.63;;;-0.79;98.66
5703;BME280;2876;51.738;10.050;2023-01-20T06:35:09;98965.47;;;-1.18;98.94
5703;BME280;2876;51.738;10.050;2023-01-20T06:41:12;98974.09;;;-1.37;99.24
5703;BME280;2876;51.738;10.050;2023-01-20T06:47:14;98975.06;;;-1.68;98.98
5703;BME280;2876;51.738;10.050;2023-01-20T06:53:16;98978.38;;;-1.76;99.34
5703;BME280;2876;51.738;10.050;2023-01-20T06:59:18;98986.31;;;-1.87;98.22
5703;BME280;2876;51.738;10.050;2023-01-20T07:05:20;98989.84;;;-1.98;98.34
5703;BME280;2876;51.738;10.050;2023-01-20T07:11:22;98994.41;;;-2.21;97.18
5703;BME280;2876;51.738;10.050;2023-01-20T07:17:24;99000.84;;;-2.25;97.87
5703;BME280;2876;51.738;10.050;2023-01-20T07:23:27;99009.69;;;-2.26;98.58
5703;BME280;2876;51.738;10.050;2023-01-20T07:29:29;99019.66;;;-2.09;99.33
5703;BME280;2876;51.738;10.050;2023-01-20T07:35:31;99025.28;;;-1.92;100.00
5703;BME280;2876;51.738;10.050;2023-01-20T07:41:33;99034.16;;;-1.72;100.00
5703;BME280;2876;51.738;10.050;2023-01-20T07:47:35;99034.63;;;-1.79;99.34
5703;BME280;2876;51.738;10.050;2023-01-20T07:53:40;99048.09;;;-1.93;98.78
5703;BME280;2876;51.738;10.050;2023-01-20T07:59:44;99049.34;;;-1.76;98.31
5703;BME280;2876;51.738;10.050;2023-01-20T08:05:46;99058.44;;;-1.80;98.04
5703;BME280;2876;51.738;10.050;2023-01-20T08:11:48;99055.53;;;-1.56;98.11
5703;BME280;2876;51.738;10.050;2023-01-20T08:17:54;99068.19;;;-1.71;98.06
5703;BME280;2876;51.738;10.050;2023-01-20T08:24:02;99073.94;;;-1.56;97.70
5703;BME280;2876;51.738;10.050;2023-01-20T08:30:07;99083.09;;;-1.30;97.00
5703;BME280;2876;51.738;10.050;2023-01-20T08:36:19;99086.94;;;-1.34;96.42
5703;BME280;2876;51.738;10.050;2023-01-20T08:42:22;99092.47;;;-1.58;96.02
5703;BME280;2876;51.738;10.050;2023-01-20T08:48:23;99094.78;;;-1.43;95.58
5703;BME280;2876;51.738;10.050;2023-01-20T08:54:25;99096.38;;;-1.52;94.73
5703;BME280;2876;51.738;10.050;2023-01-20T09:00:30;99108.13;;;-1.56;95.12
5703;BME280;2876;51.738;10.050;2023-01-20T09:06:43;99098.13;;;-1.62;95.45
5703;BME280;2876;51.738;10.050;2023-01-20T09:12:45;99120.81;;;-1.40;94.99
5703;BME280;2876;51.738;10.050;2023-01-20T09:18:48;99125.22;;;-1.20;95.82
5703;BME280;2876;51.738;10.050;2023-01-20T09:24:50;99135.63;;;-0.88;96.37
5703;BME280;2876;51.738;10.050;2023-01-20T09:31:08;99137.66;;;-0.70;96.42
5703;BME280;2876;51.738;10.050;2023-01-20T09:37:10;99145.94;;;-0.44;95.92
5703;BME280;2876;51.738;10.050;2023-01-20T09:56:46;99162.25;;;0.67;92.66
5703;BME280;2876;51.738;10.050;2023-01-20T10:03:04;99165.97;;;0.84;92.82
5703;BME280;2876;51.738;10.050;2023-01-20T10:15:29;99171.22;;;1.04;92.06
5703;BME280;2876;51.738;10.050;2023-01-20T10:21:40;99164.28;;;1.02;91.16
5703;BME280;2876;51.738;10.050;2023-01-20T10:28:00;99177.22;;;0.96;90.00
5703;BME280;2876;51.738;10.050;2023-01-20T10:34:11;99184.88;;;1.46;90.76
5703;BME280;2876;51.738;10.050;2023-01-20T10:59:41;99201.81;;;2.79;85.96
5703;BME280;2876;51.738;10.050;2023-01-20T11:05:47;99198.53;;;3.29;84.36
5703;BME280;2876;51.738;10.050;2023-01-20T11:11:50;99206.88;;;3.69;81.58
5703;BME280;2876;51.738;10.050;2023-01-20T11:24:41;99210.81;;;3.99;78.67
5703;BME280;2876;51.738;10.050;2023-01-20T11:30:54;99221.53;;;4.40;77.03
5703;BME280;2876;51.738;10.050;2023-01-20T11:37:11;99220.22;;;4.27;76.46
5703;BME280;2876;51.738;10.050;2023-01-20T11:43:34;99229.50;;;4.40;75.89
5703;BME280;2876;51.738;10.050;2023-01-20T11:49:36;99241.53;;;4.68;74.47
5703;BME280;2876;51.738;10.050;2023-01-20T11:55:54;99239.22;;;4.73;74.89
5703;BME280;2876;51.738;10.050;2023-01-20T12:08:15;99258.16;;;5.03;74.72
5703;BME280;2876;51.738;10.050;2023-01-20T12:14:54;99255.97;;;5.39;73.62
5703;BME280;2876;51.738;10.050;2023-01-20T12:21:09;99261.78;;;5.43;74.19
5703;BME280;2876;51.738;10.050;2023-01-20T12:27:22;99260.13;;;5.33;73.14
5703;BME280;2876;51.738;10.050;2023-01-20T12:39:51;99261.78;;;5.26;73.61
5703;BME280;2876;51.738;10.050;2023-01-20T12:59:32;99290.38;;;6.60;70.80
5703;BME280;2876;51.738;10.050;2023-01-20T13:18:30;99298.66;;;5.78;69.74
5703;BME280;2876;51.738;10.050;2023-01-20T13:24:36;99305.00;;;5.12;70.92
5703;BME280;2876;51.738;10.050;2023-01-20T13:30:45;99304.09;;;4.71;72.62
5703;BME280;2876;51.738;10.050;2023-01-20T13:49:24;99324.59;;;4.02;76.79
5703;BME280;2876;51.738;10.050;2023-01-20T14:01:46;99337.34;;;3.98;78.68
5703;BME280;2876;51.738;10.050;2023-01-20T14:07:48;99343.81;;;3.96;78.01
5703;BME280;2876;51.738;10.050;2023-01-20T14:19:56;99349.22;;;3.24;78.85
5703;BME280;2876;51.738;10.050;2023-01-20T14:26:23;99348.63;;;3.13;79.80
5703;BME280;2876;51.738;10.050;2023-01-20T14:32:30;99357.94;;;3.17;79.90
5703;BME280;2876;51.738;10.050;2023-01-20T14:38:33;99369.31;;;3.09;80.54
5703;BME280;2876;51.738;10.050;2023-01-20T14:44:51;99385.84;;;2.93;81.25
5703;BME280;2876;51.738;10.050;2023-01-20T14:50:53;99388.47;;;2.75;81.81
5703;BME280;2876;51.738;10.050;2023-01-20T14:56:58;99402.03;;;2.63;82.99
5703;BME280;2876;51.738;10.050;2023-01-20T15:03:18;99405.19;;;2.48;83.24
5703;BME280;2876;51.738;10.050;2023-01-20T15:09:33;99407.19;;;2.27;84.40
5703;BME280;2876;51.738;10.050;2023-01-20T15:15:35;99418.28;;;2.03;85.04
5703;BME280;2876;51.738;10.050;2023-01-20T15:21:41;99432.94;;;1.78;84.86
5703;BME280;2876;51.738;10.050;2023-01-20T15:27:52;99440.88;;;1.20;85.67
5703;BME280;2876;51.738;10.050;2023-01-20T15:33:54;99453.91;;;1.02;85.42
5703;BME280;2876;51.738;10.050;2023-01-20T15:39:56;99469.31;;;0.57;86.36
5703;BME280;2876;51.738;10.050;2023-01-20T15:45:59;99471.91;;;0.26;87.37
5703;BME280;2876;51.738;10.050;2023-01-20T15:52:01;99479.66;;;-0.03;88.27
5703;BME280;2876;51.738;10.050;2023-01-20T15:58:23;99493.31;;;-0.30;88.17
5703;BME280;2876;51.738;10.050;2023-01-20T16:04:25;99503.03;;;-0.74;91.57
5703;BME280;2876;51.738;10.050;2023-01-20T16:10:29;99515.63;;;-0.89;92.19
5703;BME280;2876;51.738;10.050;2023-01-20T16:16:31;99520.19;;;-0.91;92.46
5703;BME280;2876;51.738;10.050;2023-01-20T16:22:33;99526.41;;;-0.92;93.41
5703;BME280;2876;51.738;10.050;2023-01-20T16:28:35;99535.13;;;-0.91;94.99
5703;BME280;2876;51.738;10.050;2023-01-20T16:34:37;99543.16;;;-0.93;93.54
5703;BME280;2876;51.738;10.050;2023-01-20T16:41:19;99566.16;;;-0.95;93.92
5703;BME280;2876;51.738;10.050;2023-01-20T16:47:21;99573.19;;;-0.84;94.83
5703;BME280;2876;51.738;10.050;2023-01-20T16:53:23;99587.63;;;-0.56;94.88
5703;BME280;2876;51.738;10.050;2023-01-20T16:59:25;99592.03;;;-0.34;96.02
5703;BME280;2876;51.738;10.050;2023-01-20T17:05:27;99593.78;;;0.09;96.07
5703;BME280;2876;51.738;10.050;2023-01-20T17:11:34;99589.63;;;0.27;96.23
5703;BME280;2876;51.738;10.050;2023-01-20T17:17:36;99602.03;;;0.36;95.54
5703;BME280;2876;51.738;10.050;2023-01-20T17:23:40;99599.31;;;0.38;94.58
5703;BME280;2876;51.738;10.050;2023-01-20T17:29:42;99619.41;;;0.18;93.73
5703;BME280;2876;51.738;10.050;2023-01-20T17:35:44;99618.91;;;-0.08;93.81
5703;BME280;2876;51.738;10.050;2023-01-20T17:41:55;99635.88;;;-0.44;91.74
5703;BME280;2876;51.738;10.050;2023-01-20T17:47:57;99641.88;;;-0.76;92.68
5703;BME280;2876;51.738;10.050;2023-01-20T17:53:59;99653.09;;;-1.08;91.09
5703;BME280;2876;51.738;10.050;2023-01-20T18:00:05;99663.94;;;-1.35;92.16
5703;BME280;2876;51.738;10.050;2023-01-20T18:06:10;99669.59;;;-1.52;93.48
5703;BME280;2876;51.738;10.050;2023-01-20T18:12:12;99675.28;;;-1.93;93.33
5703;BME280;2876;51.738;10.050;2023-01-20T18:18:15;99688.25;;;-1.79;94.16
5703;BME280;2876;51.738;10.050;2023-01-20T18:24:16;99694.06;;;-2.11;92.55
5703;BME280;2876;51.738;10.050;2023-01-20T18:30:18;99698.16;;;-2.07;93.19
5703;BME280;2876;51.738;10.050;2023-01-20T18:42:25;99706.28;;;-2.22;94.22
5703;BME280;2876;51.738;10.050;2023-01-20T18:48:27;99715.25;;;-2.38;93.77
5703;BME280;2876;51.738;10.050;2023-01-20T18:54:29;99725.53;;;-2.47;93.99
5703;BME280;2876;51.738;10.050;2023-01-20T19:00:33;99731.25;;;-2.53;94.33
5703;BME280;2876;51.738;10.050;2023-01-20T19:06:38;99740.97;;;-2.30;94.86
5703;BME280;2876;51.738;10.050;2023-01-20T19:12:40;99754.53;;;-2.49;94.56
5703;BME280;2876;51.738;10.050;2023-01-20T19:18:48;99749.63;;;-2.66;94.93
5703;BME280;2876;51.738;10.050;2023-01-20T19:24:50;99752.66;;;-2.72;95.29
5703;BME280;2876;51.738;10.050;2023-01-20T19:30:52;99763.56;;;-2.66;95.46
5703;BME280;2876;51.738;10.050;2023-01-20T19:36:54;99767.34;;;-2.70;95.17
5703;BME280;2876;51.738;10.050;2023-01-20T19:42:56;99781.09;;;-2.66;95.61
5703;BME280;2876;51.738;10.050;2023-01-20T19:49:01;99773.72;;;-2.87;95.29
5703;BME280;2876;51.738;10.050;2023-01-20T19:55:03;99778.56;;;-2.55;95.51
5703;BME280;2876;51.738;10.050;2023-01-20T20:07:14;99790.34;;;-2.73;96.28
5703;BME280;2876;51.738;10.050;2023-01-20T20:13:16;99804.91;;;-2.82;96.91
5703;BME280;2876;51.738;10.050;2023-01-20T20:19:18;99806.63;;;-2.81;97.02
5703;BME280;2876;51.738;10.050;2023-01-20T20:25:20;99809.25;;;-2.81;96.63
5703;BME280;2876;51.738;10.050;2023-01-20T20:31:22;99821.50;;;-2.94;96.42
5703;BME280;2876;51.738;10.050;2023-01-20T20:37:30;99825.25;;;-2.98;96.24
5703;BME280;2876;51.738;10.050;2023-01-20T20:43:33;99831.50;;;-3.14;95.70
5703;BME280;2876;51.738;10.050;2023-01-20T20:49:34;99837.03;;;-3.18;95.66
5703;BME280;2876;51.738;10.050;2023-01-20T20:55:40;99843.56;;;-3.38;96.33
5703;BME280;2876;51.738;10.050;2023-01-20T21:01:42;99851.78;;;-3.57;96.27
5703;BME280;2876;51.738;10.050;2023-01-20T21:07:44;99861.72;;;-3.62;95.77
5703;BME280;2876;51.738;10.050;2023-01-20T21:13:46;99861.75;;;-3.76;96.11
5703;BME280;2876;51.738;10.050;2023-01-20T21:19:51;99869.28;;;-3.58;96.42
5703;BME280;2876;51.738;10.050;2023-01-20T21:26:03;99875.06;;;-3.52;97.82
5703;BME280;2876;51.738;10.050;2023-01-20T21:32:05;99879.25;;;-3.50;97.13
5703;BME280;2876;51.738;10.050;2023-01-20T21:38:07;99883.78;;;-3.52;97.56
5703;BME280;2876;51.738;10.050;2023-01-20T21:44:11;99889.28;;;-3.42;98.26
5703;BME280;2876;51.738;10.050;2023-01-20T21:50:29;99893.94;;;-3.33;97.95
5703;BME280;2876;51.738;10.050;2023-01-20T21:56:50;99908.09;;;-3.36;98.73
5703;BME280;2876;51.738;10.050;2023-01-20T22:02:52;99917.28;;;-3.43;98.22
5703;BME280;2876;51.738;10.050;2023-01-20T22:08:55;99919.75;;;-3.54;98.34
5703;BME280;2876;51.738;10.050;2023-01-20T22:15:01;99932.81;;;-3.68;98.97
5703;BME280;2876;51.738;10.050;2023-01-20T22:21:06;99935.19;;;-3.78;98.24
5703;BME280;2876;51.738;10.050;2023-01-20T22:27:08;99947.25;;;-3.75;98.03
5703;BME280;2876;51.738;10.050;2023-01-20T22:33:10;99957.53;;;-3.87;97.79
5703;BME280;2876;51.738;10.050;2023-01-20T22:39:13;99969.22;;;-4.06;97.79
5703;BME280;2876;51.738;10.050;2023-01-20T22:45:15;99970.72;;;-4.02;97.37
5703;BME280;2876;51.738;10.050;2023-01-20T22:51:20;99981.16;;;-4.17;97.52
5703;BME280;2876;51.738;10.050;2023-01-20T22:57:22;99977.72;;;-4.17;98.23
5703;BME280;2876;51.738;10.050;2023-01-20T23:03:25;99984.53;;;-4.15;98.40
5703;BME280;2876;51.738;10.050;2023-01-20T23:09:27;99983.28;;;-4.23;98.65
5703;BME280;2876;51.738;10.050;2023-01-20T23:15:29;99991.06;;;-4.22;98.20
5703;BME280;2876;51.738;10.050;2023-01-20T23:21:31;99992.09;;;-4.24;98.92
5703;BME280;2876;51.738;10.050;2023-01-20T23:27:33;100000.38;;;-4.32;98.16
5703;BME280;2876;51.738;10.050;2023-01-20T23:33:35;100012.22;;;-4.41;98.77
5703;BME280;2876;51.738;10.050;2023-01-20T23:39:37;100012.31;;;-4.42;99.38
5703;BME280;2876;51.738;10.050;2023-01-20T23:45:39;100011.81;;;-4.49;98.23
5703;BME280;2876;51.738;10.050;2023-01-20T23:51:41;100012.41;;;-4.60;98.62
5703;BME280;2876;51.738;10.050;2023-01-20T23:57:43;100026.53;;;-4.62;98.61
